sensor_id;sensor_type;location;lat;lon;timestamp;P1;durP1;ratioP1;P2;durP2;ratioP2
36923;SDS011;22841;50.252;18.688;2022-07-10T00:00:42;16.83;;;9.15;;
36923;SDS011;22841;50.252;18.688;2022-07-10T00:03:08;13.25;;;8.43;;
36923;SDS011;22841;50.252;18.688;2022-07-10T00:05:34;14.27;;;8.82;;
36923;SDS011;22841;50.252;18.688;2022-07-10T00:08:01;13.52;;;8.60;;
36923;SDS011;22841;50.252;18.688;2022-07-10T00:10:28;12.13;;;8.82;;
36923;SDS011;22841;50.252;18.688;2022-07-10T00:12:55;12.98;;;8.57;;
36923;SDS011;22841;50.252;18.688;2022-07-10T00:15:22;14.23;;;9.20;;
36923;SDS011;22841;50.252;18.688;2022-07-10T00:17:48;10.60;;;8.02;;
36923;SDS011;22841;50.252;18.688;2022-07-10T00:20:15;12.93;;;8.82;;
36923;SDS011;22841;50.252;18.688;2022-07-10T00:22:41;12.18;;;8.23;;
36923;SDS011;22841;50.252;18.688;2022-07-10T00:25:09;10.75;;;8.25;;
36923;SDS011;22841;50.252;18.688;2022-07-10T00:27:37;16.45;;;8.43;;
36923;SDS011;22841;50.252;18.688;2022-07-10T00:30:03;17.42;;;8.20;;
36923;SDS011;22841;50.252;18.688;2022-07-10T00:32:30;18.27;;;9.07;;
36923;SDS011;22841;50.252;18.688;2022-07-10T00:34:56;13.10;;;9.00;;
36923;SDS011;22841;50.252;18.688;2022-07-10T00:37:22;15.77;;;8.38;;
36923;SDS011;22841;50.252;18.688;2022-07-10T00:39:48;13.82;;;8.35;;
36923;SDS011;22841;50.252;18.688;2022-07-10T00:42:15;12.30;;;8.15;;
36923;SDS011;22841;50.252;18.688;2022-07-10T00:44:42;13.27;;;8.38;;
36923;SDS011;22841;50.252;18.688;2022-07-10T00:47:09;12.05;;;8.88;;
36923;SDS011;22841;50.252;18.688;2022-07-10T00:49:37;12.13;;;7.90;;
36923;SDS011;22841;50.252;18.688;2022-07-10T00:52:08;10.80;;;7.80;;
36923;SDS011;22841;50.252;18.688;2022-07-10T00:54:37;13.80;;;8.05;;
36923;SDS011;22841;50.252;18.688;2022-07-10T00:57:05;11.68;;;7.82;;
36923;SDS011;22841;50.252;18.688;2022-07-10T00:59:32;10.43;;;8.20;;
36923;SDS011;22841;50.252;18.688;2022-07-10T01:02:00;11.25;;;7.20;;
36923;SDS011;22841;50.252;18.688;2022-07-10T01:04:27;12.20;;;7.90;;
36923;SDS011;22841;50.252;18.688;2022-07-10T01:06:53;12.05;;;7.18;;
36923;SDS011;22841;50.252;18.688;2022-07-10T01:09:19;13.32;;;7.90;;
36923;SDS011;22841;50.252;18.688;2022-07-10T01:11:46;9.80;;;7.45;;
36923;SDS011;22841;50.252;18.688;2022-07-10T01:14:13;11.82;;;7.85;;
36923;SDS011;22841;50.252;18.688;2022-07-10T01:16:40;9.23;;;7.18;;
36923;SDS011;22841;50.252;18.688;2022-07-10T01:19:08;11.10;;;7.82;;
36923;SDS011;22841;50.252;18.688;2022-07-10T01:21:35;12.38;;;7.63;;
36923;SDS011;22841;50.252;18.688;2022-07-10T01:24:08;8.63;;;7.30;;
36923;SDS011;22841;50.252;18.688;2022-07-10T01:26:35;10.75;;;7.93;;
36923;SDS011;22841;50.252;18.688;2022-07-10T01:29:03;13.90;;;7.70;;
36923;SDS011;22841;50.252;18.688;2022-07-10T01:31:32;14.07;;;9.93;;
36923;SDS011;22841;50.252;18.688;2022-07-10T01:33:59;13.77;;;10.65;;
36923;SDS011;22841;50.252;18.688;2022-07-10T01:36:26;13.55;;;10.27;;
36923;SDS011;22841;50.252;18.688;2022-07-10T01:38:55;12.73;;;9.35;;
36923;SDS011;22841;50.252;18.688;2022-07-10T01:41:22;11.32;;;8.32;;
36923;SDS011;22841;50.252;18.688;2022-07-10T01:43:49;13.00;;;8.30;;
36923;SDS011;22841;50.252;18.688;2022-07-10T01:46:16;9.20;;;7.65;;
36923;SDS011;22841;50.252;18.688;2022-07-10T01:48:42;12.70;;;7.82;;
36923;SDS011;22841;50.252;18.688;2022-07-10T01:51:09;10.07;;;8.13;;
36923;SDS011;22841;50.252;18.688;2022-07-10T01:53:36;10.02;;;7.72;;
36923;SDS011;22841;50.252;18.688;2022-07-10T01:56:03;8.32;;;6.70;;
36923;SDS011;22841;50.252;18.688;2022-07-10T01:58:31;7.15;;;6.32;;
36923;SDS011;22841;50.252;18.688;2022-07-10T02:00:57;10.35;;;7.15;;
36923;SDS011;22841;50.252;18.688;2022-07-10T02:03:23;11.70;;;7.72;;
36923;SDS011;22841;50.252;18.688;2022-07-10T02:06:09;18.55;;;11.77;;
36923;SDS011;22841;50.252;18.688;2022-07-10T02:08:35;20.08;;;14.63;;
36923;SDS011;22841;50.252;18.688;2022-07-10T02:11:01;21.48;;;15.32;;
36923;SDS011;22841;50.252;18.688;2022-07-10T02:13:27;20.58;;;13.93;;
36923;SDS011;22841;50.252;18.688;2022-07-10T02:15:54;18.58;;;12.50;;
36923;SDS011;22841;50.252;18.688;2022-07-10T02:18:20;17.00;;;9.45;;
36923;SDS011;22841;50.252;18.688;2022-07-10T02:20:47;16.20;;;10.18;;
36923;SDS011;22841;50.252;18.688;2022-07-10T02:23:14;12.65;;;7.95;;
36923;SDS011;22841;50.252;18.688;2022-07-10T02:25:40;12.73;;;8.10;;
36923;SDS011;22841;50.252;18.688;2022-07-10T02:28:07;11.02;;;7.20;;
36923;SDS011;22841;50.252;18.688;2022-07-10T02:30:33;14.20;;;8.07;;
36923;SDS011;22841;50.252;18.688;2022-07-10T02:33:01;16.02;;;7.70;;
36923;SDS011;22841;50.252;18.688;2022-07-10T02:35:27;14.35;;;7.95;;
36923;SDS011;22841;50.252;18.688;2022-07-10T02:37:53;13.73;;;7.82;;
36923;SDS011;22841;50.252;18.688;2022-07-10T02:40:19;10.05;;;6.53;;
36923;SDS011;22841;50.252;18.688;2022-07-10T02:42:45;9.95;;;6.63;;
36923;SDS011;22841;50.252;18.688;2022-07-10T02:45:11;12.95;;;6.57;;
36923;SDS011;22841;50.252;18.688;2022-07-10T02:47:37;13.02;;;7.13;;
36923;SDS011;22841;50.252;18.688;2022-07-10T02:50:04;13.27;;;6.38;;
36923;SDS011;22841;50.252;18.688;2022-07-10T02:52:30;9.18;;;5.60;;
36923;SDS011;22841;50.252;18.688;2022-07-10T02:54:56;11.02;;;5.63;;
36923;SDS011;22841;50.252;18.688;2022-07-10T02:57:23;13.25;;;6.60;;
36923;SDS011;22841;50.252;18.688;2022-07-10T02:59:49;9.68;;;5.50;;
36923;SDS011;22841;50.252;18.688;2022-07-10T03:02:16;8.68;;;5.32;;
36923;SDS011;22841;50.252;18.688;2022-07-10T03:04:42;10.05;;;5.60;;
36923;SDS011;22841;50.252;18.688;2022-07-10T03:07:08;8.68;;;5.72;;
36923;SDS011;22841;50.252;18.688;2022-07-10T03:09:35;12.10;;;6.03;;
36923;SDS011;22841;50.252;18.688;2022-07-10T03:12:02;7.25;;;5.90;;
36923;SDS011;22841;50.252;18.688;2022-07-10T03:14:28;9.55;;;5.70;;
36923;SDS011;22841;50.252;18.688;2022-07-10T03:16:54;9.98;;;5.90;;
36923;SDS011;22841;50.252;18.688;2022-07-10T03:19:20;9.65;;;5.50;;
36923;SDS011;22841;50.252;18.688;2022-07-10T03:21:46;9.27;;;5.68;;
36923;SDS011;22841;50.252;18.688;2022-07-10T03:24:12;8.65;;;5.57;;
36923;SDS011;22841;50.252;18.688;2022-07-10T03:26:38;10.20;;;5.38;;
36923;SDS011;22841;50.252;18.688;2022-07-10T03:29:04;11.00;;;4.75;;
36923;SDS011;22841;50.252;18.688;2022-07-10T03:31:30;12.88;;;4.90;;
36923;SDS011;22841;50.252;18.688;2022-07-10T03:33:57;12.20;;;5.65;;
36923;SDS011;22841;50.252;18.688;2022-07-10T03:36:23;9.77;;;5.53;;
36923;SDS011;22841;50.252;18.688;2022-07-10T03:38:49;7.47;;;5.47;;
36923;SDS011;22841;50.252;18.688;2022-07-10T03:41:15;10.93;;;4.78;;
36923;SDS011;22841;50.252;18.688;2022-07-10T03:43:41;10.98;;;4.63;;
36923;SDS011;22841;50.252;18.688;2022-07-10T03:46:07;7.03;;;4.65;;
36923;SDS011;22841;50.252;18.688;2022-07-10T03:48:33;7.82;;;4.60;;
36923;SDS011;22841;50.252;18.688;2022-07-10T03:50:59;6.22;;;4.40;;
36923;SDS011;22841;50.252;18.688;2022-07-10T03:53:26;9.48;;;5.38;;
36923;SDS011;22841;50.252;18.688;2022-07-10T03:55:52;7.32;;;4.43;;
36923;SDS011;22841;50.252;18.688;2022-07-10T03:58:19;8.57;;;5.40;;
36923;SDS011;22841;50.252;18.688;2022-07-10T04:00:46;9.63;;;5.20;;
36923;SDS011;22841;50.252;18.688;2022-07-10T04:03:12;13.13;;;6.63;;
36923;SDS011;22841;50.252;18.688;2022-07-10T04:05:39;9.30;;;4.72;;
36923;SDS011;22841;50.252;18.688;2022-07-10T04:08:05;10.93;;;4.90;;
36923;SDS011;22841;50.252;18.688;2022-07-10T04:10:31;7.60;;;5.07;;
36923;SDS011;22841;50.252;18.688;2022-07-10T04:12:58;9.32;;;5.03;;
36923;SDS011;22841;50.252;18.688;2022-07-10T04:15:24;10.00;;;5.00;;
36923;SDS011;22841;50.252;18.688;2022-07-10T04:17:50;8.65;;;5.07;;
36923;SDS011;22841;50.252;18.688;2022-07-10T04:20:17;6.93;;;3.88;;
36923;SDS011;22841;50.252;18.688;2022-07-10T04:22:44;10.63;;;4.30;;
36923;SDS011;22841;50.252;18.688;2022-07-10T04:25:10;6.47;;;4.25;;
36923;SDS011;22841;50.252;18.688;2022-07-10T04:27:37;5.57;;;4.25;;
36923;SDS011;22841;50.252;18.688;2022-07-10T04:30:03;4.95;;;4.07;;
36923;SDS011;22841;50.252;18.688;2022-07-10T04:32:30;4.85;;;4.35;;
36923;SDS011;22841;50.252;18.688;2022-07-10T04:34:57;8.23;;;4.35;;
36923;SDS011;22841;50.252;18.688;2022-07-10T04:37:23;4.95;;;4.50;;
36923;SDS011;22841;50.252;18.688;2022-07-10T04:39:51;5.25;;;4.45;;
36923;SDS011;22841;50.252;18.688;2022-07-10T04:42:17;4.53;;;3.85;;
36923;SDS011;22841;50.252;18.688;2022-07-10T04:44:43;3.42;;;3.15;;
36923;SDS011;22841;50.252;18.688;2022-07-10T04:47:09;6.22;;;4.00;;
36923;SDS011;22841;50.252;18.688;2022-07-10T04:49:35;5.25;;;3.20;;
36923;SDS011;22841;50.252;18.688;2022-07-10T04:52:01;3.22;;;3.03;;
36923;SDS011;22841;50.252;18.688;2022-07-10T04:54:27;4.18;;;3.50;;
36923;SDS011;22841;50.252;18.688;2022-07-10T04:56:53;4.55;;;3.00;;
36923;SDS011;22841;50.252;18.688;2022-07-10T04:59:20;5.13;;;3.22;;
36923;SDS011;22841;50.252;18.688;2022-07-10T05:01:46;4.80;;;2.95;;
36923;SDS011;22841;50.252;18.688;2022-07-10T05:04:12;5.47;;;2.85;;
36923;SDS011;22841;50.252;18.688;2022-07-10T05:06:38;3.22;;;2.70;;
36923;SDS011;22841;50.252;18.688;2022-07-10T05:09:04;4.18;;;2.88;;
36923;SDS011;22841;50.252;18.688;2022-07-10T05:11:30;7.60;;;3.28;;
36923;SDS011;22841;50.252;18.688;2022-07-10T05:13:57;7.03;;;3.72;;
36923;SDS011;22841;50.252;18.688;2022-07-10T05:16:23;6.47;;;3.70;;
36923;SDS011;22841;50.252;18.688;2022-07-10T05:18:50;4.95;;;3.35;;
36923;SDS011;22841;50.252;18.688;2022-07-10T05:21:16;4.63;;;3.28;;
36923;SDS011;22841;50.252;18.688;2022-07-10T05:23:42;6.32;;;3.17;;
36923;SDS011;22841;50.252;18.688;2022-07-10T05:26:08;6.40;;;3.20;;
36923;SDS011;22841;50.252;18.688;2022-07-10T05:28:34;6.15;;;3.42;;
36923;SDS011;22841;50.252;18.688;2022-07-10T05:31:01;4.85;;;3.75;;
36923;SDS011;22841;50.252;18.688;2022-07-10T05:33:27;8.52;;;3.55;;
36923;SDS011;22841;50.252;18.688;2022-07-10T05:35:54;6.75;;;3.50;;
36923;SDS011;22841;50.252;18.688;2022-07-10T05:38:21;8.10;;;3.60;;
36923;SDS011;22841;50.252;18.688;2022-07-10T05:40:47;11.70;;;3.35;;
36923;SDS011;22841;50.252;18.688;2022-07-10T05:43:14;5.63;;;2.67;;
36923;SDS011;22841;50.252;18.688;2022-07-10T05:45:40;7.85;;;3.78;;
36923;SDS011;22841;50.252;18.688;2022-07-10T05:48:06;6.30;;;3.35;;
36923;SDS011;22841;50.252;18.688;2022-07-10T05:50:32;5.97;;;2.60;;
36923;SDS011;22841;50.252;18.688;2022-07-10T05:52:58;4.28;;;2.88;;
36923;SDS011;22841;50.252;18.688;2022-07-10T05:55:24;6.82;;;3.40;;
36923;SDS011;22841;50.252;18.688;2022-07-10T05:57:50;4.65;;;2.42;;
36923;SDS011;22841;50.252;18.688;2022-07-10T06:00:16;10.88;;;3.03;;
36923;SDS011;22841;50.252;18.688;2022-07-10T06:02:42;6.60;;;2.83;;
36923;SDS011;22841;50.252;18.688;2022-07-10T06:05:09;3.75;;;2.55;;
36923;SDS011;22841;50.252;18.688;2022-07-10T06:07:35;7.13;;;3.00;;
36923;SDS011;22841;50.252;18.688;2022-07-10T06:10:02;6.00;;;2.58;;
36923;SDS011;22841;50.252;18.688;2022-07-10T06:12:29;3.40;;;2.55;;
36923;SDS011;22841;50.252;18.688;2022-07-10T06:14:55;7.60;;;2.10;;
36923;SDS011;22841;50.252;18.688;2022-07-10T06:17:22;8.00;;;2.78;;
36923;SDS011;22841;50.252;18.688;2022-07-10T06:19:49;7.10;;;2.53;;
36923;SDS011;22841;50.252;18.688;2022-07-10T06:22:15;9.20;;;2.53;;
36923;SDS011;22841;50.252;18.688;2022-07-10T06:25:06;5.07;;;2.33;;
36923;SDS011;22841;50.252;18.688;2022-07-10T06:27:33;3.95;;;2.03;;
36923;SDS011;22841;50.252;18.688;2022-07-10T06:30:00;6.28;;;2.00;;
36923;SDS011;22841;50.252;18.688;2022-07-10T06:32:26;7.18;;;2.00;;
36923;SDS011;22841;50.252;18.688;2022-07-10T06:34:53;4.90;;;2.15;;
36923;SDS011;22841;50.252;18.688;2022-07-10T06:37:20;1.92;;;1.63;;
36923;SDS011;22841;50.252;18.688;2022-07-10T06:39:46;3.80;;;2.05;;
36923;SDS011;22841;50.252;18.688;2022-07-10T06:42:13;3.28;;;1.90;;
36923;SDS011;22841;50.252;18.688;2022-07-10T06:44:43;4.30;;;1.95;;
36923;SDS011;22841;50.252;18.688;2022-07-10T06:47:09;5.40;;;2.20;;
36923;SDS011;22841;50.252;18.688;2022-07-10T06:49:56;7.25;;;2.15;;
36923;SDS011;22841;50.252;18.688;2022-07-10T06:52:22;2.80;;;1.40;;
36923;SDS011;22841;50.252;18.688;2022-07-10T06:54:49;4.65;;;1.40;;
36923;SDS011;22841;50.252;18.688;2022-07-10T06:57:15;5.50;;;1.52;;
36923;SDS011;22841;50.252;18.688;2022-07-10T06:59:43;2.72;;;1.35;;
36923;SDS011;22841;50.252;18.688;2022-07-10T07:02:09;6.40;;;1.45;;
36923;SDS011;22841;50.252;18.688;2022-07-10T07:04:35;3.92;;;1.60;;
36923;SDS011;22841;50.252;18.688;2022-07-10T07:07:01;4.18;;;1.40;;
36923;SDS011;22841;50.252;18.688;2022-07-10T07:09:28;7.20;;;1.50;;
36923;SDS011;22841;50.252;18.688;2022-07-10T07:11:54;6.93;;;1.55;;
36923;SDS011;22841;50.252;18.688;2022-07-10T07:14:20;6.35;;;1.58;;
36923;SDS011;22841;50.252;18.688;2022-07-10T07:16:46;6.78;;;1.65;;
36923;SDS011;22841;50.252;18.688;2022-07-10T07:19:23;7.43;;;2.22;;
36923;SDS011;22841;50.252;18.688;2022-07-10T07:21:57;10.63;;;1.85;;
36923;SDS011;22841;50.252;18.688;2022-07-10T07:24:43;5.97;;;1.55;;
36923;SDS011;22841;50.252;18.688;2022-07-10T07:27:10;9.63;;;1.85;;
36923;SDS011;22841;50.252;18.688;2022-07-10T07:29:37;5.40;;;1.95;;
36923;SDS011;22841;50.252;18.688;2022-07-10T07:32:03;7.80;;;1.67;;
36923;SDS011;22841;50.252;18.688;2022-07-10T07:34:30;7.72;;;1.50;;
36923;SDS011;22841;50.252;18.688;2022-07-10T07:36:56;4.38;;;1.42;;
36923;SDS011;22841;50.252;18.688;2022-07-10T07:39:23;4.43;;;1.45;;
36923;SDS011;22841;50.252;18.688;2022-07-10T07:41:49;3.25;;;1.20;;
36923;SDS011;22841;50.252;18.688;2022-07-10T07:44:16;3.95;;;1.33;;
36923;SDS011;22841;50.252;18.688;2022-07-10T07:46:43;10.60;;;2.30;;
36923;SDS011;22841;50.252;18.688;2022-07-10T07:49:09;4.10;;;1.70;;
36923;SDS011;22841;50.252;18.688;2022-07-10T07:51:35;3.75;;;1.38;;
36923;SDS011;22841;50.252;18.688;2022-07-10T07:54:01;8.18;;;1.60;;
36923;SDS011;22841;50.252;18.688;2022-07-10T07:56:28;8.18;;;1.30;;
36923;SDS011;22841;50.252;18.688;2022-07-10T07:58:54;6.97;;;1.40;;
36923;SDS011;22841;50.252;18.688;2022-07-10T08:01:20;6.82;;;1.75;;
36923;SDS011;22841;50.252;18.688;2022-07-10T08:03:46;5.50;;;1.55;;
36923;SDS011;22841;50.252;18.688;2022-07-10T08:06:12;7.07;;;1.80;;
36923;SDS011;22841;50.252;18.688;2022-07-10T08:08:38;3.67;;;1.58;;
36923;SDS011;22841;50.252;18.688;2022-07-10T08:11:04;4.38;;;1.35;;
36923;SDS011;22841;50.252;18.688;2022-07-10T08:13:30;4.88;;;1.73;;
36923;SDS011;22841;50.252;18.688;2022-07-10T08:15:57;3.88;;;1.35;;
36923;SDS011;22841;50.252;18.688;2022-07-10T08:18:24;6.50;;;1.40;;
36923;SDS011;22841;50.252;18.688;2022-07-10T08:20:50;3.90;;;1.23;;
36923;SDS011;22841;50.252;18.688;2022-07-10T08:23:16;7.43;;;1.70;;
36923;SDS011;22841;50.252;18.688;2022-07-10T08:25:42;4.97;;;1.23;;
36923;SDS011;22841;50.252;18.688;2022-07-10T08:28:08;6.97;;;1.40;;
36923;SDS011;22841;50.252;18.688;2022-07-10T08:30:37;7.38;;;1.45;;
36923;SDS011;22841;50.252;18.688;2022-07-10T08:33:05;8.90;;;1.83;;
36923;SDS011;22841;50.252;18.688;2022-07-10T08:35:31;4.50;;;1.27;;
36923;SDS011;22841;50.252;18.688;2022-07-10T08:37:57;4.85;;;1.33;;
36923;SDS011;22841;50.252;18.688;2022-07-10T08:40:23;5.45;;;1.70;;
36923;SDS011;22841;50.252;18.688;2022-07-10T08:42:49;4.75;;;1.10;;
36923;SDS011;22841;50.252;18.688;2022-07-10T08:45:17;9.18;;;1.20;;
36923;SDS011;22841;50.252;18.688;2022-07-10T08:47:43;4.22;;;1.48;;
36923;SDS011;22841;50.252;18.688;2022-07-10T08:50:15;3.10;;;1.10;;
36923;SDS011;22841;50.252;18.688;2022-07-10T08:52:56;10.38;;;1.63;;
36923;SDS011;22841;50.252;18.688;2022-07-10T08:55:37;6.35;;;1.10;;
36923;SDS011;22841;50.252;18.688;2022-07-10T08:58:04;15.65;;;1.55;;
36923;SDS011;22841;50.252;18.688;2022-07-10T09:00:31;1.80;;;1.20;;
36923;SDS011;22841;50.252;18.688;2022-07-10T09:02:58;6.85;;;1.20;;
36923;SDS011;22841;50.252;18.688;2022-07-10T09:05:25;7.43;;;1.30;;
36923;SDS011;22841;50.252;18.688;2022-07-10T09:07:52;3.85;;;1.10;;
36923;SDS011;22841;50.252;18.688;2022-07-10T09:10:19;3.95;;;1.10;;
36923;SDS011;22841;50.252;18.688;2022-07-10T09:12:54;2.58;;;1.05;;
36923;SDS011;22841;50.252;18.688;2022-07-10T09:15:26;3.17;;;0.98;;
36923;SDS011;22841;50.252;18.688;2022-07-10T09:17:58;3.78;;;1.10;;
36923;SDS011;22841;50.252;18.688;2022-07-10T09:20:27;2.08;;;1.25;;
36923;SDS011;22841;50.252;18.688;2022-07-10T09:26:01;1.90;;;1.13;;
36923;SDS011;22841;50.252;18.688;2022-07-10T09:28:30;8.52;;;1.33;;
36923;SDS011;22841;50.252;18.688;2022-07-10T09:30:56;4.70;;;1.40;;
36923;SDS011;22841;50.252;18.688;2022-07-10T09:33:26;5.95;;;1.80;;
36923;SDS011;22841;50.252;18.688;2022-07-10T09:43:52;2.70;;;1.40;;
36923;SDS011;22841;50.252;18.688;2022-07-10T09:46:19;3.38;;;1.65;;
36923;SDS011;22841;50.252;18.688;2022-07-10T09:48:47;15.00;;;2.17;;
36923;SDS011;22841;50.252;18.688;2022-07-10T09:51:13;4.68;;;1.52;;
36923;SDS011;22841;50.252;18.688;2022-07-10T09:53:41;4.63;;;1.55;;
36923;SDS011;22841;50.252;18.688;2022-07-10T09:56:09;5.75;;;1.60;;
36923;SDS011;22841;50.252;18.688;2022-07-10T09:58:39;2.97;;;1.40;;
36923;SDS011;22841;50.252;18.688;2022-07-10T10:01:06;3.30;;;1.15;;
36923;SDS011;22841;50.252;18.688;2022-07-10T10:03:34;6.18;;;1.00;;
36923;SDS011;22841;50.252;18.688;2022-07-10T10:06:11;5.07;;;1.77;;
36923;SDS011;22841;50.252;18.688;2022-07-10T10:11:19;7.40;;;1.50;;
36923;SDS011;22841;50.252;18.688;2022-07-10T10:13:49;3.85;;;0.82;;
36923;SDS011;22841;50.252;18.688;2022-07-10T10:16:15;3.25;;;1.20;;
36923;SDS011;22841;50.252;18.688;2022-07-10T10:18:44;3.75;;;0.88;;
36923;SDS011;22841;50.252;18.688;2022-07-10T10:21:30;7.03;;;0.98;;
36923;SDS011;22841;50.252;18.688;2022-07-10T10:23:58;3.80;;;0.88;;
36923;SDS011;22841;50.252;18.688;2022-07-10T10:26:25;4.50;;;0.90;;
36923;SDS011;22841;50.252;18.688;2022-07-10T10:28:53;3.22;;;0.80;;
36923;SDS011;22841;50.252;18.688;2022-07-10T10:31:22;3.58;;;1.10;;
36923;SDS011;22841;50.252;18.688;2022-07-10T10:33:51;5.75;;;1.65;;
36923;SDS011;22841;50.252;18.688;2022-07-10T10:39:03;6.57;;;1.75;;
36923;SDS011;22841;50.252;18.688;2022-07-10T10:41:51;3.53;;;1.00;;
36923;SDS011;22841;50.252;18.688;2022-07-10T10:49:19;2.40;;;0.95;;
36923;SDS011;22841;50.252;18.688;2022-07-10T10:52:08;1.58;;;0.70;;
36923;SDS011;22841;50.252;18.688;2022-07-10T10:59:57;4.15;;;0.90;;
36923;SDS011;22841;50.252;18.688;2022-07-10T11:02:32;8.32;;;1.10;;
36923;SDS011;22841;50.252;18.688;2022-07-10T11:07:57;4.00;;;1.23;;
36923;SDS011;22841;50.252;18.688;2022-07-10T11:15:31;4.70;;;1.33;;
36923;SDS011;22841;50.252;18.688;2022-07-10T11:18:08;1.20;;;0.63;;
36923;SDS011;22841;50.252;18.688;2022-07-10T11:20:38;7.22;;;1.13;;
36923;SDS011;22841;50.252;18.688;2022-07-10T11:26:12;4.85;;;1.10;;
36923;SDS011;22841;50.252;18.688;2022-07-10T11:31:14;4.28;;;0.90;;
36923;SDS011;22841;50.252;18.688;2022-07-10T11:33:42;5.25;;;0.90;;
36923;SDS011;22841;50.252;18.688;2022-07-10T11:36:10;11.85;;;1.10;;
36923;SDS011;22841;50.252;18.688;2022-07-10T11:38:39;1.40;;;0.93;;
36923;SDS011;22841;50.252;18.688;2022-07-10T11:41:17;0.93;;;0.93;;
36923;SDS011;22841;50.252;18.688;2022-07-10T11:43:51;3.30;;;0.90;;
36923;SDS011;22841;50.252;18.688;2022-07-10T11:46:17;6.90;;;0.85;;
36923;SDS011;22841;50.252;18.688;2022-07-10T11:48:45;4.88;;;1.20;;
36923;SDS011;22841;50.252;18.688;2022-07-10T11:51:37;4.35;;;1.13;;
36923;SDS011;22841;50.252;18.688;2022-07-10T11:54:09;4.50;;;1.30;;
36923;SDS011;22841;50.252;18.688;2022-07-10T11:56:47;1.77;;;0.80;;
36923;SDS011;22841;50.252;18.688;2022-07-10T11:59:15;5.80;;;1.00;;
36923;SDS011;22841;50.252;18.688;2022-07-10T12:01:42;1.02;;;0.50;;
36923;SDS011;22841;50.252;18.688;2022-07-10T12:04:10;1.70;;;0.82;;
36923;SDS011;22841;50.252;18.688;2022-07-10T12:06:37;4.03;;;1.17;;
36923;SDS011;22841;50.252;18.688;2022-07-10T12:09:09;3.03;;;0.93;;
36923;SDS011;22841;50.252;18.688;2022-07-10T12:11:39;6.80;;;1.52;;
36923;SDS011;22841;50.252;18.688;2022-07-10T12:14:16;3.88;;;1.48;;
36923;SDS011;22841;50.252;18.688;2022-07-10T12:16:48;3.55;;;0.80;;
36923;SDS011;22841;50.252;18.688;2022-07-10T12:19:17;1.67;;;0.90;;
36923;SDS011;22841;50.252;18.688;2022-07-10T12:21:45;3.90;;;0.80;;
36923;SDS011;22841;50.252;18.688;2022-07-10T12:24:12;2.78;;;0.80;;
36923;SDS011;22841;50.252;18.688;2022-07-10T12:26:42;8.30;;;1.52;;
36923;SDS011;22841;50.252;18.688;2022-07-10T12:29:26;3.75;;;0.95;;
36923;SDS011;22841;50.252;18.688;2022-07-10T12:31:56;1.10;;;0.65;;
36923;SDS011;22841;50.252;18.688;2022-07-10T12:34:36;4.80;;;0.70;;
36923;SDS011;22841;50.252;18.688;2022-07-10T12:37:11;2.88;;;0.68;;
36923;SDS011;22841;50.252;18.688;2022-07-10T12:39:46;1.75;;;0.50;;
36923;SDS011;22841;50.252;18.688;2022-07-10T12:42:13;3.47;;;1.02;;
36923;SDS011;22841;50.252;18.688;2022-07-10T12:44:50;1.80;;;0.80;;
36923;SDS011;22841;50.252;18.688;2022-07-10T12:47:17;2.05;;;0.77;;
36923;SDS011;22841;50.252;18.688;2022-07-10T12:49:48;5.93;;;1.13;;
36923;SDS011;22841;50.252;18.688;2022-07-10T12:52:24;3.13;;;0.93;;
36923;SDS011;22841;50.252;18.688;2022-07-10T12:57:59;9.77;;;2.67;;
36923;SDS011;22841;50.252;18.688;2022-07-10T13:00:31;4.38;;;0.70;;
36923;SDS011;22841;50.252;18.688;2022-07-10T13:03:09;3.30;;;0.77;;
36923;SDS011;22841;50.252;18.688;2022-07-10T13:05:40;4.28;;;0.80;;
36923;SDS011;22841;50.252;18.688;2022-07-10T13:08:20;5.28;;;1.38;;
36923;SDS011;22841;50.252;18.688;2022-07-10T13:10:52;4.03;;;0.80;;
36923;SDS011;22841;50.252;18.688;2022-07-10T13:13:23;3.30;;;0.82;;
36923;SDS011;22841;50.252;18.688;2022-07-10T13:15:50;1.45;;;0.70;;
36923;SDS011;22841;50.252;18.688;2022-07-10T13:18:19;1.58;;;0.60;;
36923;SDS011;22841;50.252;18.688;2022-07-10T13:20:47;7.18;;;1.77;;
36923;SDS011;22841;50.252;18.688;2022-07-10T13:23:14;2.30;;;0.98;;
36923;SDS011;22841;50.252;18.688;2022-07-10T13:25:42;3.30;;;1.25;;
36923;SDS011;22841;50.252;18.688;2022-07-10T13:28:09;3.88;;;1.20;;
36923;SDS011;22841;50.252;18.688;2022-07-10T13:30:37;3.50;;;0.77;;
36923;SDS011;22841;50.252;18.688;2022-07-10T13:33:03;3.35;;;0.85;;
36923;SDS011;22841;50.252;18.688;2022-07-10T13:35:31;0.82;;;0.80;;
36923;SDS011;22841;50.252;18.688;2022-07-10T13:37:59;2.63;;;0.70;;
36923;SDS011;22841;50.252;18.688;2022-07-10T13:40:27;2.60;;;0.65;;
36923;SDS011;22841;50.252;18.688;2022-07-10T13:42:53;2.65;;;1.10;;
36923;SDS011;22841;50.252;18.688;2022-07-10T13:45:20;3.95;;;0.88;;
36923;SDS011;22841;50.252;18.688;2022-07-10T13:47:46;1.48;;;0.60;;
36923;SDS011;22841;50.252;18.688;2022-07-10T13:50:12;7.95;;;0.90;;
36923;SDS011;22841;50.252;18.688;2022-07-10T13:52:38;1.63;;;0.90;;
36923;SDS011;22841;50.252;18.688;2022-07-10T13:55:04;2.33;;;0.88;;
36923;SDS011;22841;50.252;18.688;2022-07-10T13:57:32;4.35;;;0.77;;
36923;SDS011;22841;50.252;18.688;2022-07-10T13:59:58;2.42;;;0.80;;
36923;SDS011;22841;50.252;18.688;2022-07-10T14:02:24;1.60;;;1.10;;
36923;SDS011;22841;50.252;18.688;2022-07-10T14:04:51;2.90;;;0.70;;
36923;SDS011;22841;50.252;18.688;2022-07-10T14:07:17;5.05;;;0.98;;
36923;SDS011;22841;50.252;18.688;2022-07-10T14:09:43;1.27;;;0.93;;
36923;SDS011;22841;50.252;18.688;2022-07-10T14:12:09;4.75;;;0.73;;
36923;SDS011;22841;50.252;18.688;2022-07-10T14:14:36;1.38;;;0.85;;
36923;SDS011;22841;50.252;18.688;2022-07-10T14:17:02;5.53;;;0.95;;
36923;SDS011;22841;50.252;18.688;2022-07-10T14:19:28;4.25;;;0.80;;
36923;SDS011;22841;50.252;18.688;2022-07-10T14:21:54;5.75;;;1.20;;
36923;SDS011;22841;50.252;18.688;2022-07-10T14:24:20;2.70;;;1.10;;
36923;SDS011;22841;50.252;18.688;2022-07-10T14:26:46;2.05;;;1.42;;
36923;SDS011;22841;50.252;18.688;2022-07-10T14:29:13;4.97;;;1.13;;
36923;SDS011;22841;50.252;18.688;2022-07-10T14:31:39;2.40;;;1.10;;
36923;SDS011;22841;50.252;18.688;2022-07-10T14:34:05;5.18;;;1.17;;
36923;SDS011;22841;50.252;18.688;2022-07-10T14:36:31;3.53;;;1.45;;
36923;SDS011;22841;50.252;18.688;2022-07-10T14:38:58;1.73;;;0.43;;
36923;SDS011;22841;50.252;18.688;2022-07-10T14:41:24;0.77;;;0.50;;
36923;SDS011;22841;50.252;18.688;2022-07-10T14:43:51;2.08;;;0.52;;
36923;SDS011;22841;50.252;18.688;2022-07-10T14:46:17;1.55;;;0.40;;
36923;SDS011;22841;50.252;18.688;2022-07-10T14:48:43;3.63;;;0.55;;
36923;SDS011;22841;50.252;18.688;2022-07-10T14:51:09;1.20;;;0.63;;
36923;SDS011;22841;50.252;18.688;2022-07-10T14:53:35;1.25;;;0.70;;
36923;SDS011;22841;50.252;18.688;2022-07-10T14:56:02;2.60;;;0.80;;
36923;SDS011;22841;50.252;18.688;2022-07-10T14:58:29;2.40;;;0.80;;
36923;SDS011;22841;50.252;18.688;2022-07-10T15:00:55;4.38;;;0.60;;
36923;SDS011;22841;50.252;18.688;2022-07-10T15:03:21;3.35;;;0.60;;
36923;SDS011;22841;50.252;18.688;2022-07-10T15:05:47;2.42;;;0.70;;
36923;SDS011;22841;50.252;18.688;2022-07-10T15:08:17;2.85;;;1.00;;
36923;SDS011;22841;50.252;18.688;2022-07-10T15:10:47;4.30;;;2.00;;
36923;SDS011;22841;50.252;18.688;2022-07-10T15:13:14;1.90;;;0.80;;
36923;SDS011;22841;50.252;18.688;2022-07-10T15:15:40;4.28;;;1.13;;
36923;SDS011;22841;50.252;18.688;2022-07-10T15:18:07;2.80;;;0.80;;